sensor_id;sensor_type;location;lat;lon;timestamp;P1;durP1;ratioP1;P2;durP2;ratioP2
30888;SDS011;51092;50.874;7.024;2022-11-20T00:00:37;28.75;;;20.05;;
30888;SDS011;51092;50.874;7.024;2022-11-20T00:01:38;26.77;;;19.52;;
30888;SDS011;51092;50.874;7.024;2022-11-20T00:02:40;27.95;;;19.58;;
30888;SDS011;51092;50.874;7.024;2022-11-20T00:03:44;26.40;;;19.35;;
30888;SDS011;51092;50.874;7.024;2022-11-20T00:04:46;27.70;;;21.10;;
30888;SDS011;51092;50.874;7.024;2022-11-20T00:05:49;26.33;;;18.50;;
30888;SDS011;51092;50.874;7.024;2022-11-20T00:06:51;26.35;;;18.42;;
30888;SDS011;51092;50.874;7.024;2022-11-20T00:07:52;25.27;;;17.75;;
30888;SDS011;51092;50.874;7.024;2022-11-20T00:08:54;28.48;;;17.65;;
30888;SDS011;51092;50.874;7.024;2022-11-20T00:09:56;24.00;;;17.08;;
30888;SDS011;51092;50.874;7.024;2022-11-20T00:11:01;25.45;;;19.05;;
30888;SDS011;51092;50.874;7.024;2022-11-20T00:12:03;25.73;;;17.95;;
30888;SDS011;51092;50.874;7.024;2022-11-20T00:13:07;23.77;;;18.00;;
30888;SDS011;51092;50.874;7.024;2022-11-20T00:14:08;24.85;;;18.00;;
30888;SDS011;51092;50.874;7.024;2022-11-20T00:15:12;23.85;;;17.85;;
30888;SDS011;51092;50.874;7.024;2022-11-20T00:16:14;28.35;;;20.05;;
30888;SDS011;51092;50.874;7.024;2022-11-20T00:17:16;27.75;;;17.70;;
30888;SDS011;51092;50.874;7.024;2022-11-20T00:18:17;25.65;;;18.30;;
30888;SDS011;51092;50.874;7.024;2022-11-20T00:19:19;25.25;;;18.80;;
30888;SDS011;51092;50.874;7.024;2022-11-20T00:20:20;24.73;;;18.33;;
30888;SDS011;51092;50.874;7.024;2022-11-20T00:21:25;24.20;;;18.55;;
30888;SDS011;51092;50.874;7.024;2022-11-20T00:22:27;21.30;;;15.73;;
30888;SDS011;51092;50.874;7.024;2022-11-20T00:23:30;25.25;;;18.02;;
30888;SDS011;51092;50.874;7.024;2022-11-20T00:24:31;22.13;;;17.73;;
30888;SDS011;51092;50.874;7.024;2022-11-20T00:25:34;25.67;;;17.63;;
30888;SDS011;51092;50.874;7.024;2022-11-20T00:26:35;25.80;;;19.13;;
30888;SDS011;51092;50.874;7.024;2022-11-20T00:27:38;24.00;;;18.88;;
30888;SDS011;51092;50.874;7.024;2022-11-20T00:28:40;25.35;;;17.42;;
30888;SDS011;51092;50.874;7.024;2022-11-20T00:29:43;21.50;;;16.30;;
30888;SDS011;51092;50.874;7.024;2022-11-20T00:30:44;26.17;;;18.85;;
30888;SDS011;51092;50.874;7.024;2022-11-20T00:31:47;23.15;;;18.35;;
30888;SDS011;51092;50.874;7.024;2022-11-20T00:32:48;23.73;;;17.27;;
30888;SDS011;51092;50.874;7.024;2022-11-20T00:33:51;27.85;;;19.40;;
30888;SDS011;51092;50.874;7.024;2022-11-20T00:34:53;23.80;;;16.17;;
30888;SDS011;51092;50.874;7.024;2022-11-20T00:35:58;22.00;;;17.00;;
30888;SDS011;51092;50.874;7.024;2022-11-20T00:37:02;22.63;;;16.60;;
30888;SDS011;51092;50.874;7.024;2022-11-20T00:38:04;22.00;;;16.67;;
30888;SDS011;51092;50.874;7.024;2022-11-20T00:39:06;24.45;;;18.17;;
30888;SDS011;51092;50.874;7.024;2022-11-20T00:40:09;24.70;;;18.88;;
30888;SDS011;51092;50.874;7.024;2022-11-20T00:41:13;23.67;;;16.25;;
30888;SDS011;51092;50.874;7.024;2022-11-20T00:42:16;31.73;;;19.27;;
30888;SDS011;51092;50.874;7.024;2022-11-20T00:43:18;26.90;;;17.85;;
30888;SDS011;51092;50.874;7.024;2022-11-20T00:44:20;24.30;;;17.65;;
30888;SDS011;51092;50.874;7.024;2022-11-20T00:45:22;25.95;;;18.38;;
30888;SDS011;51092;50.874;7.024;2022-11-20T00:46:25;21.33;;;17.17;;
30888;SDS011;51092;50.874;7.024;2022-11-20T00:47:28;22.95;;;18.08;;
30888;SDS011;51092;50.874;7.024;2022-11-20T00:48:30;27.27;;;18.30;;
30888;SDS011;51092;50.874;7.024;2022-11-20T00:49:32;25.02;;;18.20;;
30888;SDS011;51092;50.874;7.024;2022-11-20T00:50:34;21.95;;;15.93;;
30888;SDS011;51092;50.874;7.024;2022-11-20T00:51:35;24.60;;;17.77;;
30888;SDS011;51092;50.874;7.024;2022-11-20T00:52:39;23.23;;;16.92;;
30888;SDS011;51092;50.874;7.024;2022-11-20T00:53:40;24.83;;;18.30;;
30888;SDS011;51092;50.874;7.024;2022-11-20T00:54:42;27.83;;;18.35;;
30888;SDS011;51092;50.874;7.024;2022-11-20T00:55:51;22.25;;;16.25;;
30888;SDS011;51092;50.874;7.024;2022-11-20T00:57:57;25.05;;;16.98;;
30888;SDS011;51092;50.874;7.024;2022-11-20T00:58:59;24.05;;;17.88;;
30888;SDS011;51092;50.874;7.024;2022-11-20T01:00:02;23.08;;;16.92;;
30888;SDS011;51092;50.874;7.024;2022-11-20T01:01:06;24.60;;;18.67;;
30888;SDS011;51092;50.874;7.024;2022-11-20T01:02:10;24.95;;;18.30;;
30888;SDS011;51092;50.874;7.024;2022-11-20T01:03:11;24.00;;;16.80;;
30888;SDS011;51092;50.874;7.024;2022-11-20T01:04:14;23.40;;;17.05;;
30888;SDS011;51092;50.874;7.024;2022-11-20T01:05:15;24.65;;;18.92;;
30888;SDS011;51092;50.874;7.024;2022-11-20T01:06:17;25.15;;;18.10;;
30888;SDS011;51092;50.874;7.024;2022-11-20T01:07:20;24.83;;;18.85;;
30888;SDS011;51092;50.874;7.024;2022-11-20T01:08:23;22.65;;;17.02;;
30888;SDS011;51092;50.874;7.024;2022-11-20T01:09:25;21.73;;;16.88;;
30888;SDS011;51092;50.874;7.024;2022-11-20T01:10:27;21.40;;;16.25;;
30888;SDS011;51092;50.874;7.024;2022-11-20T01:11:30;25.00;;;17.40;;
30888;SDS011;51092;50.874;7.024;2022-11-20T01:12:33;22.58;;;16.95;;
30888;SDS011;51092;50.874;7.024;2022-11-20T01:13:35;23.13;;;17.95;;
30888;SDS011;51092;50.874;7.024;2022-11-20T01:14:37;24.15;;;16.98;;
30888;SDS011;51092;50.874;7.024;2022-11-20T01:15:40;23.27;;;16.90;;
30888;SDS011;51092;50.874;7.024;2022-11-20T01:16:42;19.80;;;14.77;;
30888;SDS011;51092;50.874;7.024;2022-11-20T01:17:46;25.73;;;17.60;;
30888;SDS011;51092;50.874;7.024;2022-11-20T01:18:48;23.40;;;15.75;;
30888;SDS011;51092;50.874;7.024;2022-11-20T01:19:52;22.33;;;17.35;;
30888;SDS011;51092;50.874;7.024;2022-11-20T01:20:53;24.67;;;17.65;;
30888;SDS011;51092;50.874;7.024;2022-11-20T01:21:56;27.42;;;19.40;;
30888;SDS011;51092;50.874;7.024;2022-11-20T01:22:58;25.40;;;17.75;;
30888;SDS011;51092;50.874;7.024;2022-11-20T01:24:01;27.15;;;18.98;;
30888;SDS011;51092;50.874;7.024;2022-11-20T01:25:05;22.77;;;17.33;;
30888;SDS011;51092;50.874;7.024;2022-11-20T01:26:07;23.90;;;16.35;;
30888;SDS011;51092;50.874;7.024;2022-11-20T01:27:11;22.48;;;16.75;;
30888;SDS011;51092;50.874;7.024;2022-11-20T01:28:12;21.90;;;16.85;;
30888;SDS011;51092;50.874;7.024;2022-11-20T01:29:15;23.58;;;17.73;;
30888;SDS011;51092;50.874;7.024;2022-11-20T01:30:19;22.92;;;16.88;;
30888;SDS011;51092;50.874;7.024;2022-11-20T01:31:23;25.63;;;18.67;;
30888;SDS011;51092;50.874;7.024;2022-11-20T01:32:26;21.40;;;16.55;;
30888;SDS011;51092;50.874;7.024;2022-11-20T01:33:29;23.20;;;16.13;;
30888;SDS011;51092;50.874;7.024;2022-11-20T01:34:30;24.27;;;16.83;;
30888;SDS011;51092;50.874;7.024;2022-11-20T01:35:33;23.13;;;15.90;;
30888;SDS011;51092;50.874;7.024;2022-11-20T01:36:35;27.55;;;16.88;;
30888;SDS011;51092;50.874;7.024;2022-11-20T01:37:38;22.27;;;16.50;;
30888;SDS011;51092;50.874;7.024;2022-11-20T01:38:40;21.30;;;16.15;;
30888;SDS011;51092;50.874;7.024;2022-11-20T01:39:44;21.63;;;16.70;;
30888;SDS011;51092;50.874;7.024;2022-11-20T01:40:45;21.95;;;15.50;;
30888;SDS011;51092;50.874;7.024;2022-11-20T01:41:56;22.23;;;15.88;;
30888;SDS011;51092;50.874;7.024;2022-11-20T01:43:16;23.38;;;18.40;;
30888;SDS011;51092;50.874;7.024;2022-11-20T01:44:22;22.02;;;14.70;;
30888;SDS011;51092;50.874;7.024;2022-11-20T01:46:01;22.17;;;16.45;;
30888;SDS011;51092;50.874;7.024;2022-11-20T01:47:15;22.02;;;15.63;;
30888;SDS011;51092;50.874;7.024;2022-11-20T01:48:18;22.80;;;17.55;;
30888;SDS011;51092;50.874;7.024;2022-11-20T01:49:24;21.90;;;14.88;;
30888;SDS011;51092;50.874;7.024;2022-11-20T01:50:27;21.70;;;16.02;;
30888;SDS011;51092;50.874;7.024;2022-11-20T01:51:32;22.58;;;17.38;;
30888;SDS011;51092;50.874;7.024;2022-11-20T01:52:36;21.13;;;15.10;;
30888;SDS011;51092;50.874;7.024;2022-11-20T01:53:41;25.95;;;16.85;;
30888;SDS011;51092;50.874;7.024;2022-11-20T01:54:45;22.40;;;15.13;;
30888;SDS011;51092;50.874;7.024;2022-11-20T01:55:51;22.83;;;17.35;;
30888;SDS011;51092;50.874;7.024;2022-11-20T01:56:55;23.98;;;17.35;;
30888;SDS011;51092;50.874;7.024;2022-11-20T01:58:01;22.63;;;16.35;;
30888;SDS011;51092;50.874;7.024;2022-11-20T01:59:05;23.40;;;16.67;;
30888;SDS011;51092;50.874;7.024;2022-11-20T02:00:11;21.65;;;15.93;;
30888;SDS011;51092;50.874;7.024;2022-11-20T02:01:14;23.13;;;17.52;;
30888;SDS011;51092;50.874;7.024;2022-11-20T02:02:20;22.02;;;16.83;;
30888;SDS011;51092;50.874;7.024;2022-11-20T02:03:22;21.90;;;16.73;;
30888;SDS011;51092;50.874;7.024;2022-11-20T02:04:25;21.58;;;15.45;;
30888;SDS011;51092;50.874;7.024;2022-11-20T02:05:27;22.25;;;16.25;;
30888;SDS011;51092;50.874;7.024;2022-11-20T02:06:35;21.90;;;15.60;;
30888;SDS011;51092;50.874;7.024;2022-11-20T02:07:40;22.65;;;16.10;;
30888;SDS011;51092;50.874;7.024;2022-11-20T02:08:43;22.48;;;16.73;;
30888;SDS011;51092;50.874;7.024;2022-11-20T02:09:46;21.63;;;15.77;;
30888;SDS011;51092;50.874;7.024;2022-11-20T02:10:49;20.85;;;16.27;;
30888;SDS011;51092;50.874;7.024;2022-11-20T02:11:50;22.45;;;17.10;;
30888;SDS011;51092;50.874;7.024;2022-11-20T02:12:53;21.63;;;16.90;;
30888;SDS011;51092;50.874;7.024;2022-11-20T02:14:14;24.40;;;16.90;;
30888;SDS011;51092;50.874;7.024;2022-11-20T02:15:16;21.67;;;16.85;;
30888;SDS011;51092;50.874;7.024;2022-11-20T02:16:19;20.83;;;15.48;;
30888;SDS011;51092;50.874;7.024;2022-11-20T02:17:24;24.48;;;16.33;;
30888;SDS011;51092;50.874;7.024;2022-11-20T02:18:26;22.38;;;16.58;;
30888;SDS011;51092;50.874;7.024;2022-11-20T02:19:29;24.55;;;17.10;;
30888;SDS011;51092;50.874;7.024;2022-11-20T02:20:33;22.40;;;16.75;;
30888;SDS011;51092;50.874;7.024;2022-11-20T02:21:35;22.55;;;17.00;;
30888;SDS011;51092;50.874;7.024;2022-11-20T02:22:44;21.70;;;16.80;;
30888;SDS011;51092;50.874;7.024;2022-11-20T02:24:06;22.20;;;16.02;;
30888;SDS011;51092;50.874;7.024;2022-11-20T02:25:11;23.95;;;17.23;;
30888;SDS011;51092;50.874;7.024;2022-11-20T02:26:13;22.73;;;15.98;;
30888;SDS011;51092;50.874;7.024;2022-11-20T02:27:18;21.88;;;16.13;;
30888;SDS011;51092;50.874;7.024;2022-11-20T02:28:19;21.30;;;16.20;;
30888;SDS011;51092;50.874;7.024;2022-11-20T02:29:23;24.38;;;17.48;;
30888;SDS011;51092;50.874;7.024;2022-11-20T02:30:27;23.75;;;18.02;;
30888;SDS011;51092;50.874;7.024;2022-11-20T02:31:35;22.33;;;16.98;;
30888;SDS011;51092;50.874;7.024;2022-11-20T02:32:39;25.08;;;17.10;;
30888;SDS011;51092;50.874;7.024;2022-11-20T02:33:41;23.23;;;17.63;;
30888;SDS011;51092;50.874;7.024;2022-11-20T02:34:43;21.63;;;16.75;;
30888;SDS011;51092;50.874;7.024;2022-11-20T02:35:46;24.92;;;17.25;;
30888;SDS011;51092;50.874;7.024;2022-11-20T02:36:48;22.77;;;16.67;;
30888;SDS011;51092;50.874;7.024;2022-11-20T02:37:52;24.60;;;17.83;;
30888;SDS011;51092;50.874;7.024;2022-11-20T02:38:55;23.10;;;16.55;;
30888;SDS011;51092;50.874;7.024;2022-11-20T02:39:59;21.00;;;15.85;;
30888;SDS011;51092;50.874;7.024;2022-11-20T02:41:01;22.23;;;16.42;;
30888;SDS011;51092;50.874;7.024;2022-11-20T02:42:04;21.67;;;16.02;;
30888;SDS011;51092;50.874;7.024;2022-11-20T02:43:05;20.85;;;16.02;;
30888;SDS011;51092;50.874;7.024;2022-11-20T02:44:08;21.27;;;16.15;;
30888;SDS011;51092;50.874;7.024;2022-11-20T02:45:11;21.88;;;16.75;;
30888;SDS011;51092;50.874;7.024;2022-11-20T02:46:12;23.58;;;17.08;;
30888;SDS011;51092;50.874;7.024;2022-11-20T02:47:15;23.23;;;16.33;;
30888;SDS011;51092;50.874;7.024;2022-11-20T02:48:17;20.55;;;16.15;;
30888;SDS011;51092;50.874;7.024;2022-11-20T02:49:19;22.30;;;16.35;;
30888;SDS011;51092;50.874;7.024;2022-11-20T02:50:21;22.15;;;16.08;;
30888;SDS011;51092;50.874;7.024;2022-11-20T02:51:23;20.83;;;16.00;;
30888;SDS011;51092;50.874;7.024;2022-11-20T02:52:25;22.52;;;17.35;;
30888;SDS011;51092;50.874;7.024;2022-11-20T02:53:28;20.92;;;15.23;;
30888;SDS011;51092;50.874;7.024;2022-11-20T02:54:29;23.05;;;16.95;;
30888;SDS011;51092;50.874;7.024;2022-11-20T02:55:33;21.23;;;16.17;;
30888;SDS011;51092;50.874;7.024;2022-11-20T02:56:37;23.13;;;16.05;;
30888;SDS011;51092;50.874;7.024;2022-11-20T02:57:40;25.98;;;17.42;;
30888;SDS011;51092;50.874;7.024;2022-11-20T02:58:41;23.52;;;18.20;;
30888;SDS011;51092;50.874;7.024;2022-11-20T02:59:44;23.23;;;17.38;;
30888;SDS011;51092;50.874;7.024;2022-11-20T03:00:45;22.60;;;16.27;;
30888;SDS011;51092;50.874;7.024;2022-11-20T03:01:47;19.73;;;15.57;;
30888;SDS011;51092;50.874;7.024;2022-11-20T03:02:48;22.35;;;16.67;;
30888;SDS011;51092;50.874;7.024;2022-11-20T03:03:50;25.27;;;17.80;;
30888;SDS011;51092;50.874;7.024;2022-11-20T03:04:55;22.33;;;16.23;;
30888;SDS011;51092;50.874;7.024;2022-11-20T03:05:58;21.90;;;16.35;;
30888;SDS011;51092;50.874;7.024;2022-11-20T03:07:00;22.10;;;16.50;;
30888;SDS011;51092;50.874;7.024;2022-11-20T03:08:03;22.05;;;15.65;;
30888;SDS011;51092;50.874;7.024;2022-11-20T03:09:06;22.05;;;16.63;;
30888;SDS011;51092;50.874;7.024;2022-11-20T03:10:08;21.55;;;16.58;;
30888;SDS011;51092;50.874;7.024;2022-11-20T03:11:12;20.55;;;16.63;;
30888;SDS011;51092;50.874;7.024;2022-11-20T03:12:13;25.52;;;17.90;;
30888;SDS011;51092;50.874;7.024;2022-11-20T03:13:16;20.90;;;16.08;;
30888;SDS011;51092;50.874;7.024;2022-11-20T03:14:17;23.23;;;16.77;;
30888;SDS011;51092;50.874;7.024;2022-11-20T03:15:20;24.70;;;17.42;;
30888;SDS011;51092;50.874;7.024;2022-11-20T03:16:22;23.13;;;16.55;;
30888;SDS011;51092;50.874;7.024;2022-11-20T03:17:25;22.60;;;16.55;;
30888;SDS011;51092;50.874;7.024;2022-11-20T03:18:27;24.42;;;17.65;;
30888;SDS011;51092;50.874;7.024;2022-11-20T03:19:30;26.33;;;17.38;;
30888;SDS011;51092;50.874;7.024;2022-11-20T03:20:32;25.90;;;17.23;;
30888;SDS011;51092;50.874;7.024;2022-11-20T03:21:35;21.92;;;16.27;;
30888;SDS011;51092;50.874;7.024;2022-11-20T03:22:36;25.98;;;17.20;;
30888;SDS011;51092;50.874;7.024;2022-11-20T03:23:39;23.33;;;16.90;;
30888;SDS011;51092;50.874;7.024;2022-11-20T03:24:41;23.30;;;17.30;;
30888;SDS011;51092;50.874;7.024;2022-11-20T03:25:43;23.58;;;15.95;;
30888;SDS011;51092;50.874;7.024;2022-11-20T03:26:47;25.90;;;17.83;;
30888;SDS011;51092;50.874;7.024;2022-11-20T03:27:49;24.73;;;16.55;;
30888;SDS011;51092;50.874;7.024;2022-11-20T03:28:51;23.27;;;16.30;;
30888;SDS011;51092;50.874;7.024;2022-11-20T03:29:55;22.80;;;16.88;;
30888;SDS011;51092;50.874;7.024;2022-11-20T03:30:57;22.35;;;17.58;;
30888;SDS011;51092;50.874;7.024;2022-11-20T03:31:59;24.42;;;17.00;;
30888;SDS011;51092;50.874;7.024;2022-11-20T03:33:01;23.25;;;17.33;;
30888;SDS011;51092;50.874;7.024;2022-11-20T03:34:03;22.98;;;16.90;;
30888;SDS011;51092;50.874;7.024;2022-11-20T03:35:05;25.63;;;18.67;;
30888;SDS011;51092;50.874;7.024;2022-11-20T03:36:09;24.90;;;18.75;;
30888;SDS011;51092;50.874;7.024;2022-11-20T03:37:12;24.95;;;18.08;;
30888;SDS011;51092;50.874;7.024;2022-11-20T03:38:14;23.65;;;17.35;;
30888;SDS011;51092;50.874;7.024;2022-11-20T03:39:16;22.75;;;17.30;;
30888;SDS011;51092;50.874;7.024;2022-11-20T03:40:18;22.65;;;16.23;;
30888;SDS011;51092;50.874;7.024;2022-11-20T03:41:20;24.92;;;17.60;;
30888;SDS011;51092;50.874;7.024;2022-11-20T03:42:25;24.52;;;17.27;;
30888;SDS011;51092;50.874;7.024;2022-11-20T03:43:46;22.83;;;16.60;;
30888;SDS011;51092;50.874;7.024;2022-11-20T03:44:49;21.88;;;16.55;;
30888;SDS011;51092;50.874;7.024;2022-11-20T03:45:51;24.55;;;16.20;;
30888;SDS011;51092;50.874;7.024;2022-11-20T03:46:54;23.02;;;16.60;;
30888;SDS011;51092;50.874;7.024;2022-11-20T03:47:55;23.88;;;17.85;;
30888;SDS011;51092;50.874;7.024;2022-11-20T03:48:57;25.10;;;18.13;;
30888;SDS011;51092;50.874;7.024;2022-11-20T03:49:59;23.15;;;16.42;;
30888;SDS011;51092;50.874;7.024;2022-11-20T03:51:07;23.52;;;17.45;;
30888;SDS011;51092;50.874;7.024;2022-11-20T03:52:11;25.13;;;18.42;;
30888;SDS011;51092;50.874;7.024;2022-11-20T03:53:13;25.17;;;18.10;;
30888;SDS011;51092;50.874;7.024;2022-11-20T03:54:15;27.30;;;17.83;;
30888;SDS011;51092;50.874;7.024;2022-11-20T03:55:16;24.08;;;17.58;;
30888;SDS011;51092;50.874;7.024;2022-11-20T03:56:20;24.58;;;17.50;;
30888;SDS011;51092;50.874;7.024;2022-11-20T03:57:23;29.15;;;18.83;;
30888;SDS011;51092;50.874;7.024;2022-11-20T03:58:26;25.60;;;17.52;;
30888;SDS011;51092;50.874;7.024;2022-11-20T03:59:28;25.85;;;18.17;;
30888;SDS011;51092;50.874;7.024;2022-11-20T04:00:29;25.65;;;18.30;;
30888;SDS011;51092;50.874;7.024;2022-11-20T04:01:32;21.58;;;16.98;;
30888;SDS011;51092;50.874;7.024;2022-11-20T04:02:34;21.92;;;16.75;;
30888;SDS011;51092;50.874;7.024;2022-11-20T04:03:37;25.30;;;19.05;;
30888;SDS011;51092;50.874;7.024;2022-11-20T04:04:40;24.42;;;17.42;;
30888;SDS011;51092;50.874;7.024;2022-11-20T04:05:42;26.40;;;18.33;;
30888;SDS011;51092;50.874;7.024;2022-11-20T04:06:44;26.83;;;17.80;;
30888;SDS011;51092;50.874;7.024;2022-11-20T04:07:47;27.20;;;18.88;;
30888;SDS011;51092;50.874;7.024;2022-11-20T04:08:49;25.92;;;17.88;;
30888;SDS011;51092;50.874;7.024;2022-11-20T04:09:52;25.08;;;17.98;;
30888;SDS011;51092;50.874;7.024;2022-11-20T04:10:53;25.92;;;17.15;;
30888;SDS011;51092;50.874;7.024;2022-11-20T04:11:56;25.13;;;18.70;;
30888;SDS011;51092;50.874;7.024;2022-11-20T04:12:58;26.20;;;19.38;;
30888;SDS011;51092;50.874;7.024;2022-11-20T04:14:02;27.50;;;19.10;;
30888;SDS011;51092;50.874;7.024;2022-11-20T04:15:05;25.35;;;17.38;;
30888;SDS011;51092;50.874;7.024;2022-11-20T04:16:08;26.05;;;18.67;;
30888;SDS011;51092;50.874;7.024;2022-11-20T04:17:10;26.95;;;19.33;;
30888;SDS011;51092;50.874;7.024;2022-11-20T04:18:12;26.58;;;19.70;;
30888;SDS011;51092;50.874;7.024;2022-11-20T04:19:15;31.08;;;21.27;;
30888;SDS011;51092;50.874;7.024;2022-11-20T04:20:18;29.55;;;18.83;;
30888;SDS011;51092;50.874;7.024;2022-11-20T04:21:20;27.63;;;19.92;;
30888;SDS011;51092;50.874;7.024;2022-11-20T04:22:23;26.02;;;19.15;;
30888;SDS011;51092;50.874;7.024;2022-11-20T04:23:25;28.05;;;19.02;;
30888;SDS011;51092;50.874;7.024;2022-11-20T04:24:28;33.15;;;21.48;;
30888;SDS011;51092;50.874;7.024;2022-11-20T04:25:29;29.17;;;19.33;;
30888;SDS011;51092;50.874;7.024;2022-11-20T04:26:32;28.42;;;20.25;;
30888;SDS011;51092;50.874;7.024;2022-11-20T04:27:34;28.38;;;20.10;;
30888;SDS011;51092;50.874;7.024;2022-11-20T04:28:37;26.20;;;19.55;;
30888;SDS011;51092;50.874;7.024;2022-11-20T04:29:40;28.08;;;20.58;;
30888;SDS011;51092;50.874;7.024;2022-11-20T04:30:42;24.65;;;18.88;;
30888;SDS011;51092;50.874;7.024;2022-11-20T04:31:44;28.88;;;20.20;;
30888;SDS011;51092;50.874;7.024;2022-11-20T04:32:46;24.33;;;19.05;;
30888;SDS011;51092;50.874;7.024;2022-11-20T04:33:48;28.38;;;18.30;;
30888;SDS011;51092;50.874;7.024;2022-11-20T04:34:51;26.90;;;19.35;;
30888;SDS011;51092;50.874;7.024;2022-11-20T04:35:52;28.02;;;20.20;;
30888;SDS011;51092;50.874;7.024;2022-11-20T04:36:55;28.63;;;19.65;;
30888;SDS011;51092;50.874;7.024;2022-11-20T04:37:56;26.30;;;19.35;;
30888;SDS011;51092;50.874;7.024;2022-11-20T04:38:59;30.15;;;20.08;;
30888;SDS011;51092;50.874;7.024;2022-11-20T04:40:02;29.05;;;20.40;;
30888;SDS011;51092;50.874;7.024;2022-11-20T04:41:06;27.95;;;19.42;;
30888;SDS011;51092;50.874;7.024;2022-11-20T04:42:11;29.17;;;19.17;;
30888;SDS011;51092;50.874;7.024;2022-11-20T04:43:32;26.48;;;18.67;;
30888;SDS011;51092;50.874;7.024;2022-11-20T04:44:34;27.20;;;18.13;;
30888;SDS011;51092;50.874;7.024;2022-11-20T04:45:38;28.05;;;20.73;;
30888;SDS011;51092;50.874;7.024;2022-11-20T04:46:40;27.08;;;19.70;;
30888;SDS011;51092;50.874;7.024;2022-11-20T04:47:43;28.33;;;19.55;;
30888;SDS011;51092;50.874;7.024;2022-11-20T04:48:45;27.40;;;20.30;;
30888;SDS011;51092;50.874;7.024;2022-11-20T04:49:48;30.75;;;20.25;;
30888;SDS011;51092;50.874;7.024;2022-11-20T04:50:50;28.05;;;20.65;;
30888;SDS011;51092;50.874;7.024;2022-11-20T04:51:52;29.08;;;20.58;;
30888;SDS011;51092;50.874;7.024;2022-11-20T04:52:54;26.73;;;19.95;;
30888;SDS011;51092;50.874;7.024;2022-11-20T04:53:56;32.88;;;23.27;;
30888;SDS011;51092;50.874;7.024;2022-11-20T04:54:58;28.77;;;20.92;;
30888;SDS011;51092;50.874;7.024;2022-11-20T04:56:00;28.15;;;19.83;;
30888;SDS011;51092;50.874;7.024;2022-11-20T04:57:03;27.63;;;20.15;;
30888;SDS011;51092;50.874;7.024;2022-11-20T04:58:05;31.48;;;22.83;;
30888;SDS011;51092;50.874;7.024;2022-11-20T04:59:07;29.85;;;19.98;;
30888;SDS011;51092;50.874;7.024;2022-11-20T05:00:10;29.92;;;20.50;;
30888;SDS011;51092;50.874;7.024;2022-11-20T05:01:14;31.05;;;20.92;;
30888;SDS011;51092;50.874;7.024;2022-11-20T05:02:18;27.48;;;19.75;;
30888;SDS011;51092;50.874;7.024;2022-11-20T05:03:20;31.65;;;20.95;;
30888;SDS011;51092;50.874;7.024;2022-11-20T05:04:22;28.23;;;20.35;;
30888;SDS011;51092;50.874;7.024;2022-11-20T05:05:24;27.58;;;20.13;;
30888;SDS011;51092;50.874;7.024;2022-11-20T05:06:27;32.83;;;22.00;;
30888;SDS011;51092;50.874;7.024;2022-11-20T05:07:28;27.88;;;21.05;;
30888;SDS011;51092;50.874;7.024;2022-11-20T05:08:31;29.48;;;20.65;;
30888;SDS011;51092;50.874;7.024;2022-11-20T05:09:33;30.25;;;21.10;;
30888;SDS011;51092;50.874;7.024;2022-11-20T05:10:35;28.90;;;21.38;;
30888;SDS011;51092;50.874;7.024;2022-11-20T05:11:37;31.17;;;22.20;;
30888;SDS011;51092;50.874;7.024;2022-11-20T05:12:39;33.05;;;22.83;;
30888;SDS011;51092;50.874;7.024;2022-11-20T05:13:41;32.92;;;22.70;;
30888;SDS011;51092;50.874;7.024;2022-11-20T05:14:44;29.75;;;21.52;;
30888;SDS011;51092;50.874;7.024;2022-11-20T05:15:45;31.05;;;21.95;;
30888;SDS011;51092;50.874;7.024;2022-11-20T05:16:49;34.22;;;24.15;;
30888;SDS011;51092;50.874;7.024;2022-11-20T05:17:51;32.05;;;23.52;;
30888;SDS011;51092;50.874;7.024;2022-11-20T05:18:54;33.05;;;22.85;;
30888;SDS011;51092;50.874;7.024;2022-11-20T05:19:56;29.73;;;22.27;;
30888;SDS011;51092;50.874;7.024;2022-11-20T05:20:58;30.65;;;22.60;;
30888;SDS011;51092;50.874;7.024;2022-11-20T05:21:59;33.08;;;23.00;;
30888;SDS011;51092;50.874;7.024;2022-11-20T05:23:02;32.70;;;22.70;;
30888;SDS011;51092;50.874;7.024;2022-11-20T05:24:04;32.35;;;23.05;;
30888;SDS011;51092;50.874;7.024;2022-11-20T05:25:07;36.60;;;24.77;;
30888;SDS011;51092;50.874;7.024;2022-11-20T05:26:12;31.33;;;22.70;;
30888;SDS011;51092;50.874;7.024;2022-11-20T05:27:31;31.98;;;23.35;;
30888;SDS011;51092;50.874;7.024;2022-11-20T05:28:32;30.33;;;22.60;;
30888;SDS011;51092;50.874;7.024;2022-11-20T05:29:35;33.22;;;22.70;;
30888;SDS011;51092;50.874;7.024;2022-11-20T05:30:37;32.90;;;23.08;;
30888;SDS011;51092;50.874;7.024;2022-11-20T05:31:40;33.10;;;22.05;;
30888;SDS011;51092;50.874;7.024;2022-11-20T05:32:43;32.03;;;21.55;;
30888;SDS011;51092;50.874;7.024;2022-11-20T05:33:45;33.58;;;24.23;;
30888;SDS011;51092;50.874;7.024;2022-11-20T05:34:47;33.78;;;23.83;;
30888;SDS011;51092;50.874;7.024;2022-11-20T05:35:49;31.92;;;22.67;;
30888;SDS011;51092;50.874;7.024;2022-11-20T05:36:51;34.42;;;22.33;;
30888;SDS011;51092;50.874;7.024;2022-11-20T05:37:53;36.40;;;25.27;;
30888;SDS011;51092;50.874;7.024;2022-11-20T05:38:55;32.88;;;21.58;;
30888;SDS011;51092;50.874;7.024;2022-11-20T05:39:57;30.95;;;21.65;;
30888;SDS011;51092;50.874;7.024;2022-11-20T05:41:03;34.67;;;23.77;;
30888;SDS011;51092;50.874;7.024;2022-11-20T05:42:06;37.92;;;22.83;;
30888;SDS011;51092;50.874;7.024;2022-11-20T05:43:26;32.60;;;23.58;;
30888;SDS011;51092;50.874;7.024;2022-11-20T05:44:29;32.70;;;23.48;;
30888;SDS011;51092;50.874;7.024;2022-11-20T05:45:30;31.45;;;21.88;;
30888;SDS011;51092;50.874;7.024;2022-11-20T05:46:33;34.97;;;23.88;;
30888;SDS011;51092;50.874;7.024;2022-11-20T05:47:34;29.30;;;21.52;;
30888;SDS011;51092;50.874;7.024;2022-11-20T05:48:38;29.45;;;22.67;;
30888;SDS011;51092;50.874;7.024;2022-11-20T05:49:41;32.40;;;22.00;;
30888;SDS011;51092;50.874;7.024;2022-11-20T05:50:43;32.78;;;22.88;;
30888;SDS011;51092;50.874;7.024;2022-11-20T05:51:45;35.90;;;23.33;;
30888;SDS011;51092;50.874;7.024;2022-11-20T05:52:47;39.53;;;25.38;;
30888;SDS011;51092;50.874;7.024;2022-11-20T05:53:48;34.28;;;23.55;;
30888;SDS011;51092;50.874;7.024;2022-11-20T05:54:51;32.20;;;22.30;;
30888;SDS011;51092;50.874;7.024;2022-11-20T05:55:56;39.40;;;23.25;;
30888;SDS011;51092;50.874;7.024;2022-11-20T05:57:00;32.92;;;22.98;;
30888;SDS011;51092;50.874;7.024;2022-11-20T05:58:01;33.05;;;23.05;;
30888;SDS011;51092;50.874;7.024;2022-11-20T05:59:04;34.72;;;23.30;;
30888;SDS011;51092;50.874;7.024;2022-11-20T06:00:05;33.03;;;22.95;;
30888;SDS011;51092;50.874;7.024;2022-11-20T06:01:09;31.02;;;22.33;;
30888;SDS011;51092;50.874;7.024;2022-11-20T06:02:12;30.13;;;21.02;;
30888;SDS011;51092;50.874;7.024;2022-11-20T06:03:14;34.80;;;23.33;;
30888;SDS011;51092;50.874;7.024;2022-11-20T06:04:17;31.48;;;22.92;;
30888;SDS011;51092;50.874;7.024;2022-11-20T06:05:19;29.55;;;20.80;;
30888;SDS011;51092;50.874;7.024;2022-11-20T06:06:21;32.35;;;23.05;;
30888;SDS011;51092;50.874;7.024;2022-11-20T06:07:25;31.60;;;22.08;;
30888;SDS011;51092;50.874;7.024;2022-11-20T06:08:27;30.60;;;20.30;;
30888;SDS011;51092;50.874;7.024;2022-11-20T06:09:30;34.00;;;22.85;;
30888;SDS011;51092;50.874;7.024;2022-11-20T06:10:31;36.50;;;22.48;;